createdAt,value
2023-05-04T00:02:12.921Z,77.49
2023-05-04T00:04:42.970Z,77.66
2023-05-04T00:07:10.990Z,77.36
2023-05-04T00:09:39.044Z,77.35
2023-05-04T00:12:08.153Z,77.52
2023-05-04T00:14:37.504Z,77.50
2023-05-04T00:17:06.905Z,77.68
2023-05-04T00:19:36.159Z,78.05
2023-05-04T00:22:03.932Z,78.00
2023-05-04T00:24:31.773Z,77.99
2023-05-04T00:26:59.751Z,78.00
2023-05-04T00:29:27.503Z,78.13
2023-05-04T00:31:55.290Z,77.68
2023-05-04T00:34:23.099Z,77.51
2023-05-04T00:36:50.944Z,77.06
2023-05-04T00:39:18.716Z,76.34
2023-05-04T00:41:46.510Z,76.94
2023-05-04T00:44:14.577Z,77.03
2023-05-04T00:46:42.699Z,76.86
2023-05-04T00:49:10.723Z,76.44
2023-05-04T00:51:38.534Z,76.89
2023-05-04T00:54:06.378Z,76.65
2023-05-04T00:56:41.168Z,76.94
2023-05-04T00:59:09.439Z,77.49
2023-05-04T01:01:37.425Z,77.99
2023-05-04T01:04:05.926Z,78.14
2023-05-04T01:06:52.947Z,78.24
2023-05-04T01:10:05.752Z,77.88
2023-05-04T01:12:48.091Z,77.97
2023-05-04T01:15:16.382Z,78.16
2023-05-04T01:17:44.265Z,78.35
2023-05-04T01:20:12.512Z,78.47
2023-05-04T01:22:40.788Z,78.72
2023-05-04T01:25:09.612Z,79.15
2023-05-04T01:27:50.549Z,79.02
2023-05-04T01:30:26.210Z,78.61
2023-05-04T01:32:55.859Z,78.15
2023-05-04T01:35:25.826Z,78.53
2023-05-04T01:37:54.424Z,79.02
2023-05-04T01:40:22.275Z,78.63
2023-05-04T01:42:50.179Z,78.33
2023-05-04T01:45:18.196Z,78.15
2023-05-04T01:47:46.524Z,79.16
2023-05-04T01:50:14.645Z,79.09
2023-05-04T01:52:42.360Z,78.85
2023-05-04T01:55:10.387Z,78.91
2023-05-04T01:57:38.174Z,79.13
2023-05-04T02:00:07.075Z,79.47
2023-05-04T02:02:35.150Z,79.59
2023-05-04T02:05:03.063Z,79.87
2023-05-04T02:07:30.934Z,80.07
2023-05-04T02:09:58.692Z,79.62
2023-05-04T02:12:26.456Z,79.82
2023-05-04T02:14:54.319Z,79.94
2023-05-04T02:17:22.087Z,80.06
2023-05-04T02:19:49.860Z,80.01
2023-05-04T02:22:17.719Z,79.73
2023-05-04T02:24:45.578Z,79.78
2023-05-04T02:27:13.341Z,80.21
2023-05-04T02:29:41.121Z,80.51
2023-05-04T02:32:08.980Z,80.50
2023-05-04T02:34:37.052Z,80.20
2023-05-04T02:37:07.358Z,79.74
2023-05-04T02:39:35.679Z,80.07
2023-05-04T02:42:03.728Z,80.27
2023-05-04T02:44:31.580Z,80.55
2023-05-04T02:46:59.554Z,80.45
2023-05-04T02:49:27.276Z,80.16
2023-05-04T02:51:55.086Z,80.23
2023-05-04T02:54:22.842Z,80.69
2023-05-04T02:56:50.811Z,80.59
2023-05-04T02:59:18.689Z,80.57
2023-05-04T03:01:46.520Z,80.74
2023-05-04T03:04:14.533Z,80.59
2023-05-04T03:06:42.579Z,80.61
2023-05-04T03:09:10.660Z,80.69
2023-05-04T03:11:38.416Z,80.99
2023-05-04T03:14:06.895Z,80.93
2023-05-04T03:16:35.223Z,80.27
2023-05-04T03:19:03.344Z,80.53
2023-05-04T03:21:31.207Z,80.52
2023-05-04T03:23:59.287Z,80.77
2023-05-04T03:26:27.144Z,80.81
2023-05-04T03:28:54.912Z,80.92
2023-05-04T03:31:22.917Z,81.11
2023-05-04T03:33:50.748Z,81.16
2023-05-04T03:36:19.025Z,81.31
2023-05-04T03:38:46.887Z,81.17
2023-05-04T03:41:14.686Z,81.39
2023-05-04T03:43:43.029Z,81.86
2023-05-04T03:46:11.783Z,82.06
2023-05-04T03:48:40.317Z,81.83
2023-05-04T03:51:08.479Z,81.61
2023-05-04T03:53:36.436Z,81.64
2023-05-04T03:56:04.708Z,81.77
2023-05-04T03:58:32.432Z,82.06
2023-05-04T04:01:03.530Z,82.30
2023-05-04T04:03:31.745Z,82.19
2023-05-04T04:05:59.762Z,82.01
2023-05-04T04:08:27.622Z,81.87
2023-05-04T04:10:55.521Z,81.96
2023-05-04T04:13:23.352Z,81.82
2023-05-04T04:15:51.235Z,81.90
2023-05-04T04:18:19.086Z,82.25
2023-05-04T04:20:47.055Z,82.39
2023-05-04T04:23:18.719Z,82.56
2023-05-04T04:25:46.994Z,82.68
2023-05-04T04:28:14.852Z,82.64
2023-05-04T04:30:43.021Z,82.62
2023-05-04T04:33:11.037Z,82.54
2023-05-04T04:35:38.990Z,82.50
2023-05-04T04:38:07.252Z,82.41
2023-05-04T04:40:34.969Z,82.55
2023-05-04T04:43:03.311Z,82.53
2023-05-04T04:45:33.626Z,82.67
2023-05-04T04:48:01.986Z,82.72
2023-05-04T04:50:30.335Z,82.56
2023-05-04T04:52:58.237Z,82.20
2023-05-04T04:55:26.463Z,81.64
2023-05-04T04:57:55.747Z,81.36
2023-05-04T05:00:24.345Z,81.08
2023-05-04T05:02:52.204Z,80.87
2023-05-04T05:05:20.030Z,80.84
2023-05-04T05:07:47.892Z,80.58
2023-05-04T05:10:16.272Z,80.34
2023-05-04T05:12:44.211Z,79.94
2023-05-04T05:15:11.996Z,79.23
2023-05-04T05:17:39.809Z,79.11
2023-05-04T05:20:11.474Z,78.94
2023-05-04T05:22:39.507Z,78.71
2023-05-04T05:25:08.531Z,78.57
2023-05-04T05:27:36.854Z,76.88
2023-05-04T05:30:06.549Z,76.37
2023-05-04T05:32:34.899Z,76.37
2023-05-04T05:35:02.660Z,76.60
2023-05-04T05:37:32.438Z,76.54
2023-05-04T05:40:00.297Z,76.14
2023-05-04T05:42:30.534Z,76.02
2023-05-04T05:44:58.366Z,75.62
2023-05-04T05:47:26.157Z,75.12
2023-05-04T05:49:54.722Z,74.81
2023-05-04T05:52:23.102Z,74.32
2023-05-04T05:54:51.066Z,74.13
2023-05-04T05:57:18.929Z,73.90
2023-05-04T05:59:47.601Z,73.40
2023-05-04T06:02:15.452Z,73.18
2023-05-04T06:04:46.508Z,72.30
2023-05-04T06:07:14.601Z,71.82
2023-05-04T06:09:42.568Z,71.04
2023-05-04T06:12:13.706Z,69.81
2023-05-04T06:14:41.509Z,69.34
2023-05-04T06:17:10.045Z,68.85
2023-05-04T06:19:38.586Z,68.06
2023-05-04T06:22:06.509Z,68.27
2023-05-04T06:24:34.471Z,67.82
2023-05-04T06:27:02.521Z,66.99
2023-05-04T06:29:30.734Z,65.80
2023-05-04T06:31:59.225Z,65.26
2023-05-04T06:34:27.586Z,65.33
2023-05-04T06:36:55.783Z,63.77
2023-05-04T06:39:24.364Z,61.38
2023-05-04T06:41:55.772Z,63.44
2023-05-04T06:44:24.122Z,62.23
2023-05-04T06:46:52.395Z,62.00
2023-05-04T06:49:20.760Z,60.94
2023-05-04T06:51:48.915Z,60.87
2023-05-04T06:54:16.846Z,57.37
2023-05-04T06:56:45.390Z,59.41
2023-05-04T06:59:13.573Z,60.24
2023-05-04T07:01:42.573Z,59.67
2023-05-04T07:04:11.066Z,58.66
2023-05-04T07:06:39.917Z,60.00
2023-05-04T07:09:08.612Z,58.33
2023-05-04T07:11:36.911Z,58.91
2023-05-04T07:14:05.102Z,58.89
2023-05-04T07:16:34.584Z,55.95
2023-05-04T07:19:03.021Z,56.80
2023-05-04T07:21:31.217Z,55.36
2023-05-04T07:23:59.456Z,53.58
2023-05-04T07:26:27.934Z,51.69
2023-05-04T07:28:56.207Z,54.17
2023-05-04T07:31:24.498Z,52.66
2023-05-04T07:33:53.282Z,51.03
2023-05-04T07:36:21.618Z,51.26
2023-05-04T07:38:49.753Z,52.73
2023-05-04T07:41:18.222Z,54.33
2023-05-04T07:43:46.732Z,54.04
2023-05-04T07:46:14.521Z,53.17
2023-05-04T07:48:42.498Z,52.50
2023-05-04T07:51:14.915Z,52.67
2023-05-04T07:53:43.845Z,52.22
2023-05-04T07:56:13.368Z,50.93
2023-05-04T07:58:42.235Z,50.26
2023-05-04T08:01:10.097Z,51.36
2023-05-04T08:03:38.422Z,49.75
2023-05-04T08:06:07.965Z,47.97
2023-05-04T08:08:35.933Z,46.66
2023-05-04T08:11:18.698Z,45.80
2023-05-04T08:13:51.078Z,46.71
2023-05-04T08:16:18.781Z,47.30
2023-05-04T08:18:46.654Z,47.22
2023-05-04T08:21:16.790Z,46.30
2023-05-04T08:23:44.627Z,45.74
2023-05-04T08:26:15.813Z,46.91
2023-05-04T08:28:46.758Z,46.60
2023-05-04T08:31:16.316Z,46.73
2023-05-04T08:33:46.747Z,43.92
2023-05-04T08:36:15.888Z,46.09
2023-05-04T08:38:44.268Z,46.28
2023-05-04T08:41:12.940Z,46.24
2023-05-04T08:43:41.224Z,46.77
2023-05-04T08:46:12.047Z,48.10
2023-05-04T08:48:43.423Z,47.49
2023-05-04T08:51:12.545Z,47.21
2023-05-04T08:53:47.646Z,49.22
2023-05-04T08:56:18.139Z,49.28
2023-05-04T08:58:52.114Z,48.53
2023-05-04T09:01:22.691Z,48.26
2023-05-04T09:03:52.885Z,46.36
2023-05-04T09:06:22.414Z,45.81
2023-05-04T09:08:51.541Z,45.26
2023-05-04T09:11:20.345Z,46.09
2023-05-04T09:13:49.442Z,45.42
2023-05-04T09:16:20.193Z,43.95
2023-05-04T09:18:49.950Z,43.12
2023-05-04T09:21:31.007Z,39.30
2023-05-04T09:24:00.498Z,41.09
2023-05-04T09:26:35.950Z,40.77
2023-05-04T09:29:14.192Z,40.42
2023-05-04T09:31:53.043Z,39.87
2023-05-04T09:34:23.047Z,37.17
2023-05-04T09:37:02.884Z,38.23
2023-05-04T09:39:31.907Z,39.82
2023-05-04T09:42:01.096Z,40.07
2023-05-04T09:44:30.117Z,40.60
2023-05-04T09:46:59.577Z,40.11
2023-05-04T09:49:36.262Z,38.58
2023-05-04T09:52:07.410Z,38.39
2023-05-04T09:54:36.552Z,39.15
2023-05-04T09:57:15.705Z,39.63
2023-05-04T09:59:44.646Z,38.96
2023-05-04T10:02:22.872Z,36.22
2023-05-04T10:04:53.562Z,39.09
2023-05-04T10:07:23.429Z,39.01
2023-05-04T10:09:53.649Z,39.00
2023-05-04T10:12:22.462Z,40.28
2023-05-04T10:14:51.410Z,40.33
2023-05-04T10:17:39.331Z,40.54
2023-05-04T10:20:30.697Z,41.30
2023-05-04T10:23:28.855Z,40.01
2023-05-04T10:26:50.806Z,36.04
2023-05-04T10:29:25.037Z,36.88
2023-05-04T10:31:53.957Z,36.98
2023-05-04T10:34:28.346Z,36.60
2023-05-04T10:37:00.032Z,35.37
2023-05-04T10:39:32.481Z,37.08
2023-05-04T10:42:06.189Z,35.70
2023-05-04T10:44:37.678Z,38.70
2023-05-04T10:47:09.243Z,36.46
2023-05-04T10:49:40.628Z,37.66
2023-05-04T10:52:09.998Z,36.10
2023-05-04T10:54:41.702Z,36.11
2023-05-04T10:57:17.812Z,35.83
2023-05-04T10:59:59.725Z,35.42
2023-05-04T11:02:30.963Z,34.38
2023-05-04T11:05:04.948Z,34.08
2023-05-04T11:07:37.974Z,34.10
2023-05-04T11:10:09.886Z,35.82
2023-05-04T11:12:39.326Z,33.84
2023-05-04T11:15:09.546Z,33.72
2023-05-04T11:17:52.056Z,34.45
2023-05-04T11:20:27.706Z,36.65
2023-05-04T11:22:56.734Z,37.03
2023-05-04T11:25:30.822Z,36.02
2023-05-04T11:28:00.189Z,36.32
2023-05-04T11:30:35.127Z,33.58
2023-05-04T11:33:11.973Z,33.05
2023-05-04T11:35:42.608Z,33.33
2023-05-04T11:38:11.493Z,34.00
2023-05-04T11:40:41.671Z,34.09
2023-05-04T11:43:11.916Z,32.50
2023-05-04T11:45:41.697Z,32.94
2023-05-04T11:48:10.598Z,33.32
2023-05-04T11:50:39.106Z,33.33
2023-05-04T11:53:21.736Z,33.82
2023-05-04T11:55:50.761Z,32.89
2023-05-04T11:58:25.986Z,33.95
2023-05-04T12:00:58.737Z,33.40
2023-05-04T12:06:07.579Z,35.52
2023-05-04T12:08:42.556Z,33.70
2023-05-04T12:11:25.915Z,34.21
2023-05-04T12:14:12.086Z,34.52
2023-05-04T12:16:41.597Z,35.35
2023-05-04T12:19:11.589Z,35.96
2023-05-04T12:21:53.945Z,34.41
2023-05-04T12:24:24.142Z,32.43
2023-05-04T12:26:52.903Z,34.30
2023-05-04T12:29:21.538Z,32.62
2023-05-04T12:31:49.898Z,32.23
2023-05-04T12:34:18.848Z,30.70
2023-05-04T12:36:47.166Z,31.17
2023-05-04T12:39:15.338Z,32.36
2023-05-04T12:41:43.897Z,32.41
2023-05-04T12:44:14.816Z,32.48
2023-05-04T12:46:46.263Z,31.45
2023-05-04T12:49:14.785Z,31.96
2023-05-04T12:51:44.275Z,32.65
2023-05-04T12:54:12.761Z,32.40
2023-05-04T12:56:41.224Z,31.54
2023-05-04T12:59:09.792Z,31.30
2023-05-04T13:01:40.383Z,31.06
2023-05-04T13:04:08.333Z,31.13
2023-05-04T13:06:36.515Z,30.70
2023-05-04T13:09:06.154Z,30.94
2023-05-04T13:11:34.544Z,31.97
2023-05-04T13:14:02.557Z,31.20
2023-05-04T13:16:31.641Z,33.27
2023-05-04T13:18:59.957Z,32.79
2023-05-04T13:21:27.704Z,32.32
2023-05-04T13:23:55.798Z,32.49
2023-05-04T13:26:23.759Z,32.48
2023-05-04T13:28:51.887Z,31.20
2023-05-04T13:31:19.860Z,31.12
2023-05-04T13:33:50.494Z,30.14
2023-05-04T13:36:18.381Z,31.68
2023-05-04T13:38:46.241Z,30.32
2023-05-04T13:41:16.334Z,32.85
2023-05-04T13:43:44.231Z,29.55
2023-05-04T13:46:12.360Z,30.86
2023-05-04T13:48:40.169Z,30.41
2023-05-04T13:51:07.958Z,29.88
2023-05-04T13:53:35.791Z,30.49
2023-05-04T13:56:04.000Z,30.87
2023-05-04T13:58:31.856Z,31.07
2023-05-04T14:01:00.682Z,30.96
2023-05-04T14:03:31.547Z,32.14
2023-05-04T14:05:59.385Z,32.35
2023-05-04T14:08:27.173Z,32.08
2023-05-04T14:10:55.185Z,31.77
2023-05-04T14:13:23.464Z,33.36
2023-05-04T14:15:51.211Z,31.79
2023-05-04T14:18:19.069Z,32.39
2023-05-04T14:20:48.543Z,31.52
2023-05-04T14:23:16.396Z,32.68
2023-05-04T14:25:50.562Z,31.28
2023-05-04T14:28:18.796Z,30.18
2023-05-04T14:30:46.734Z,30.50
2023-05-04T14:33:14.648Z,30.79
2023-05-04T14:35:44.670Z,31.82
2023-05-04T14:38:14.171Z,29.72
2023-05-04T14:40:42.345Z,30.44
2023-05-04T14:43:10.213Z,32.34
2023-05-04T14:45:38.668Z,31.18
2023-05-04T14:48:08.820Z,30.17
2023-05-04T14:50:36.777Z,29.61
2023-05-04T14:53:04.558Z,30.56
2023-05-04T14:55:33.772Z,30.57
2023-05-04T14:58:01.539Z,30.74
2023-05-04T15:00:29.367Z,30.88
2023-05-04T15:02:57.257Z,32.44
2023-05-04T15:05:25.098Z,31.84
2023-05-04T15:07:55.403Z,31.47
2023-05-04T15:10:23.190Z,31.02
2023-05-04T15:12:51.740Z,29.98
2023-05-04T15:15:25.047Z,30.17
2023-05-04T15:17:55.886Z,30.70
2023-05-04T15:20:24.718Z,30.10
2023-05-04T15:22:53.998Z,29.67
2023-05-04T15:25:25.233Z,30.24
2023-05-04T15:27:53.866Z,29.44
2023-05-04T15:30:21.931Z,30.14
2023-05-04T15:32:50.172Z,30.57
2023-05-04T15:35:18.805Z,30.15
2023-05-04T15:37:46.636Z,29.38
2023-05-04T15:40:14.391Z,29.40
2023-05-04T15:42:42.136Z,28.95
2023-05-04T15:45:10.710Z,29.64
2023-05-04T15:47:38.931Z,29.79
2023-05-04T15:50:07.276Z,29.88
2023-05-04T15:52:35.336Z,29.23
2023-05-04T15:55:13.109Z,28.84
2023-05-04T15:57:51.376Z,29.31
2023-05-04T16:00:19.877Z,29.62
2023-05-04T16:02:48.020Z,29.40
2023-05-04T16:05:15.901Z,28.60
2023-05-04T16:07:45.356Z,29.03
2023-05-04T16:10:13.179Z,29.18
2023-05-04T16:12:41.372Z,28.88
2023-05-04T16:15:11.910Z,28.08
2023-05-04T16:17:40.107Z,28.73
2023-05-04T16:20:09.034Z,28.78
2023-05-04T16:22:37.307Z,29.58
2023-05-04T16:25:05.540Z,29.14
2023-05-04T16:27:33.407Z,29.20
2023-05-04T16:30:01.291Z,29.95
2023-05-04T16:32:29.030Z,29.48
2023-05-04T16:34:56.818Z,31.77
2023-05-04T16:37:25.028Z,31.61
2023-05-04T16:39:55.062Z,29.78
2023-05-04T16:42:23.257Z,31.57
2023-05-04T16:44:51.777Z,28.17
2023-05-04T16:47:20.604Z,28.72
2023-05-04T16:49:49.084Z,30.21
2023-05-04T16:52:17.887Z,30.24
2023-05-04T16:54:45.906Z,29.61
2023-05-04T16:57:14.056Z,29.01
2023-05-04T16:59:42.102Z,30.50
2023-05-04T17:02:10.450Z,32.15
2023-05-04T17:04:38.982Z,33.12
2023-05-04T17:07:10.653Z,32.56
2023-05-04T17:09:39.338Z,34.21
2023-05-04T17:12:07.740Z,34.77
2023-05-04T17:14:36.273Z,35.91
2023-05-04T17:17:04.639Z,35.29
2023-05-04T17:19:33.319Z,36.25
2023-05-04T17:22:02.190Z,37.60
2023-05-04T17:24:30.463Z,37.22
2023-05-04T17:26:58.899Z,38.77
2023-05-04T17:29:27.222Z,38.49
2023-05-04T17:31:55.367Z,38.65
2023-05-04T17:34:23.891Z,39.70
2023-05-04T17:36:51.879Z,40.86
2023-05-04T17:39:19.861Z,41.57
2023-05-04T17:41:49.188Z,42.02
2023-05-04T17:44:17.733Z,42.43
2023-05-04T17:46:45.920Z,43.43
2023-05-04T17:49:14.199Z,43.80
2023-05-04T17:51:42.652Z,43.36
2023-05-04T17:54:11.083Z,43.86
2023-05-04T17:56:39.420Z,44.27
2023-05-04T17:59:07.672Z,44.59
2023-05-04T18:01:36.118Z,44.70
2023-05-04T18:04:04.411Z,44.88
2023-05-04T18:06:33.056Z,45.44
2023-05-04T18:09:01.141Z,46.26
2023-05-04T18:11:28.979Z,46.34
2023-05-04T18:13:57.131Z,46.23
2023-05-04T18:16:25.915Z,46.52
2023-05-04T18:18:54.032Z,46.93
2023-05-04T18:21:21.945Z,47.13
2023-05-04T18:23:50.096Z,47.35
2023-05-04T18:26:22.858Z,48.05
2023-05-04T18:28:50.971Z,48.08
2023-05-04T18:31:19.223Z,48.53
2023-05-04T18:33:47.390Z,48.31
2023-05-04T18:36:15.550Z,48.43
2023-05-04T18:38:43.683Z,49.11
2023-05-04T18:41:12.106Z,50.13
2023-05-04T18:43:40.405Z,50.37
2023-05-04T18:46:08.723Z,50.20
2023-05-04T18:48:36.899Z,50.92
2023-05-04T18:51:05.324Z,50.67
2023-05-04T18:53:33.697Z,51.50
2023-05-04T18:56:06.701Z,52.34
2023-05-04T18:58:37.252Z,53.03
2023-05-04T19:01:06.201Z,53.22
2023-05-04T19:03:34.375Z,52.74
2023-05-04T19:06:02.364Z,52.32
2023-05-04T19:08:30.165Z,52.72
2023-05-04T19:11:03.108Z,52.62
2023-05-04T19:13:31.396Z,53.23
2023-05-04T19:15:59.149Z,54.31
2023-05-04T19:18:26.999Z,54.85
2023-05-04T19:20:54.855Z,54.90
2023-05-04T19:23:22.702Z,55.57
2023-05-04T19:25:50.468Z,56.18
2023-05-04T19:28:18.339Z,57.01
2023-05-04T19:30:46.525Z,56.91
2023-05-04T19:33:14.737Z,56.67
2023-05-04T19:35:42.856Z,56.75
2023-05-04T19:38:10.659Z,56.78
2023-05-04T19:40:39.123Z,57.00
2023-05-04T19:43:08.199Z,57.73
2023-05-04T19:45:36.260Z,57.67
2023-05-04T19:48:04.987Z,57.69
2023-05-04T19:50:32.932Z,57.77
2023-05-04T19:53:00.861Z,57.91
2023-05-04T19:55:28.591Z,58.95
2023-05-04T19:57:56.368Z,58.30
2023-05-04T20:00:24.429Z,58.73
2023-05-04T20:02:52.234Z,58.31
2023-05-04T20:05:20.122Z,58.14
2023-05-04T20:07:47.895Z,57.90
2023-05-04T20:10:15.723Z,58.63
2023-05-04T20:12:43.600Z,59.73
2023-05-04T20:15:11.792Z,59.69
2023-05-04T20:17:39.612Z,59.37
2023-05-04T20:20:08.630Z,59.65
2023-05-04T20:22:38.424Z,60.05
2023-05-04T20:25:06.544Z,60.20
2023-05-04T20:27:38.525Z,60.35
2023-05-04T20:30:07.548Z,60.56
2023-05-04T20:32:35.661Z,60.28
2023-05-04T20:35:03.825Z,59.64
2023-05-04T20:37:31.659Z,59.86
2023-05-04T20:39:59.441Z,59.86
2023-05-04T20:42:27.156Z,60.09
2023-05-04T20:44:54.961Z,60.56
2023-05-04T20:47:22.863Z,59.95
2023-05-04T20:49:51.010Z,61.62
2023-05-04T20:52:18.880Z,62.81
2023-05-04T20:54:47.012Z,62.33
2023-05-04T20:57:14.813Z,61.50
2023-05-04T20:59:42.680Z,61.56
2023-05-04T21:02:10.741Z,61.96
2023-05-04T21:04:38.707Z,62.53
2023-05-04T21:07:06.917Z,62.70
2023-05-04T21:09:34.642Z,62.63
2023-05-04T21:12:03.118Z,62.51
2023-05-04T21:14:31.085Z,62.32
2023-05-04T21:16:59.052Z,62.25
2023-05-04T21:19:26.949Z,63.93
2023-05-04T21:21:54.890Z,63.19
2023-05-04T21:24:23.179Z,63.69
2023-05-04T21:26:51.368Z,64.01
2023-05-04T21:29:19.170Z,64.14
2023-05-04T21:31:47.086Z,64.34
2023-05-04T21:34:15.408Z,64.26
2023-05-04T21:36:44.671Z,64.13
2023-05-04T21:39:12.675Z,64.58
2023-05-04T21:41:40.445Z,64.92
2023-05-04T21:44:08.222Z,65.29
2023-05-04T21:46:36.431Z,65.20
2023-05-04T21:49:04.232Z,64.91
2023-05-04T21:51:31.993Z,64.74
2023-05-04T21:53:59.927Z,64.24
2023-05-04T21:56:27.732Z,64.45
2023-05-04T21:58:55.552Z,64.28
2023-05-04T22:01:23.447Z,63.92
2023-05-04T22:03:52.968Z,63.64
2023-05-04T22:06:22.138Z,63.18
2023-05-04T22:08:49.909Z,63.36
2023-05-04T22:11:17.645Z,62.53
2023-05-04T22:13:45.424Z,62.69
2023-05-04T22:16:16.005Z,62.64
2023-05-04T22:18:46.913Z,62.46
2023-05-04T22:21:14.736Z,62.93
2023-05-04T22:23:42.601Z,62.08
2023-05-04T22:26:10.388Z,61.55
2023-05-04T22:28:38.208Z,61.92
2023-05-04T22:31:06.131Z,61.75
2023-05-04T22:33:33.977Z,61.64
2023-05-04T22:36:01.938Z,61.85
2023-05-04T22:38:29.811Z,61.61
2023-05-04T22:40:57.572Z,61.70
2023-05-04T22:43:25.648Z,61.66
2023-05-04T22:45:53.424Z,62.39
2023-05-04T22:48:21.478Z,62.01
2023-05-04T22:50:49.447Z,61.82
2023-05-04T22:53:17.517Z,61.65
2023-05-04T22:55:45.335Z,62.47
2023-05-04T22:58:13.152Z,61.93
2023-05-04T23:00:41.006Z,62.07
2023-05-04T23:03:08.950Z,62.30
2023-05-04T23:05:37.557Z,62.35
2023-05-04T23:08:05.764Z,62.08
2023-05-04T23:10:33.607Z,62.17
2023-05-04T23:13:01.516Z,62.44
2023-05-04T23:15:29.357Z,63.10
2023-05-04T23:17:57.229Z,63.10
2023-05-04T23:20:25.367Z,63.18
2023-05-04T23:22:53.340Z,63.13
2023-05-04T23:25:21.192Z,63.27
2023-05-04T23:27:48.966Z,63.53
2023-05-04T23:30:16.828Z,63.91
2023-05-04T23:32:44.652Z,63.53
2023-05-04T23:35:12.699Z,63.60
2023-05-04T23:37:40.904Z,63.78
2023-05-04T23:40:09.518Z,64.01
2023-05-04T23:42:37.719Z,64.03
2023-05-04T23:45:06.592Z,64.48
2023-05-04T23:47:34.445Z,64.82
2023-05-04T23:50:02.181Z,64.94
2023-05-04T23:52:29.949Z,65.23
2023-05-04T23:54:57.927Z,65.36
2023-05-04T23:57:25.747Z,65.35
2023-05-04T23:59:53.609Z,65.41
